Time;durP1;ratioP1;P1;durP2;ratioP2;P2;SDS_P1;SDS_P2;PMS_P1;PMS_P2;Temp;Humidity;BMP_temperature;BMP_pressure;BME280_temperature;BME280_humidity;BME280_pressure;Samples;Min_cycle;Max_cycle;Signal;HPM_P1;HPM_P2
2021/01/03 00:00:23;;;;;;;4.28;3.88;;;;;;;;;;5060986;28;20507;-48
2021/01/03 00:02:49;;;;;;;5.05;3.40;;;;;;;;;;5045622;28;20198;-48
2021/01/03 00:05:16;;;;;;;5.43;3.67;;;;;;;;;;5039880;28;20237;-48
2021/01/03 00:07:42;;;;;;;4.97;4.05;;;;;;;;;;5039101;28;20257;-48
2021/01/03 00:10:09;;;;;;;3.83;3.42;;;;;;;;;;5060514;28;20553;-48
2021/01/03 00:12:35;;;;;;;4.05;3.65;;;;;;;;;;5051656;28;20460;-48
2021/01/03 00:15:01;;;;;;;5.38;3.70;;;;;;;;;;5032982;28;20211;-48
2021/01/03 00:17:27;;;;;;;3.42;3.13;;;;;;;;;;5049587;28;20268;-48
2021/01/03 00:19:53;;;;;;;4.70;4.20;;;;;;;;;;5065309;28;20566;-48
2021/01/03 00:22:19;;;;;;;4.13;3.60;;;;;;;;;;5056593;28;20202;-48
2021/01/03 00:24:45;;;;;;;4.32;3.92;;;;;;;;;;5057214;28;20589;-48
2021/01/03 00:27:11;;;;;;;4.60;4.20;;;;;;;;;;5043865;28;20187;-48
2021/01/03 00:29:37;;;;;;;3.90;3.50;;;;;;;;;;5047690;28;20190;-47
2021/01/03 00:32:03;;;;;;;4.55;4.15;;;;;;;;;;5057604;28;20195;-48
2021/01/03 00:34:29;;;;;;;4.22;3.67;;;;;;;;;;5057952;28;20202;-48
2021/01/03 00:36:55;;;;;;;4.25;3.75;;;;;;;;;;5052021;28;20191;-48
2021/01/03 00:39:21;;;;;;;4.18;3.78;;;;;;;;;;5062959;28;20178;-48
2021/01/03 00:41:48;;;;;;;4.40;3.97;;;;;;;;;;5061381;28;20183;-48
2021/01/03 00:44:14;;;;;;;4.60;4.05;;;;;;;;;;5045264;28;20880;-48
2021/01/03 00:46:40;;;;;;;4.70;4.20;;;;;;;;;;5036975;28;20183;-48
2021/01/03 00:49:06;;;;;;;4.38;3.97;;;;;;;;;;5056236;28;20546;-48
2021/01/03 00:51:32;;;;;;;4.07;3.67;;;;;;;;;;5058336;28;20468;-48
2021/01/03 00:53:58;;;;;;;4.63;4.20;;;;;;;;;;5056719;28;20195;-48
2021/01/03 00:56:25;;;;;;;4.60;4.20;;;;;;;;;;5044248;28;20183;-47
2021/01/03 00:58:51;;;;;;;4.72;4.32;;;;;;;;;;5054887;28;20256;-48
2021/01/03 01:01:17;;;;;;;5.25;3.90;;;;;;;;;;5046890;28;20244;-48
2021/01/03 01:03:43;;;;;;;4.57;4.18;;;;;;;;;;5057185;28;20567;-47
2021/01/03 01:06:09;;;;;;;4.45;3.88;;;;;;;;;;5050256;28;20187;-48
2021/01/03 01:08:35;;;;;;;5.10;4.50;;;;;;;;;;5056824;28;20176;-48
2021/01/03 01:11:01;;;;;;;5.05;4.30;;;;;;;;;;5059273;28;20617;-48
2021/01/03 01:13:27;;;;;;;4.70;4.20;;;;;;;;;;5056586;28;20211;-48
2021/01/03 01:15:53;;;;;;;4.20;3.80;;;;;;;;;;5054330;28;20309;-48
2021/01/03 01:18:19;;;;;;;5.70;4.25;;;;;;;;;;5056355;28;20183;-48
2021/01/03 01:20:45;;;;;;;4.50;4.10;;;;;;;;;;5064273;28;20566;-48
2021/01/03 01:23:11;;;;;;;4.90;4.40;;;;;;;;;;5057497;28;20198;-48
2021/01/03 01:25:37;;;;;;;4.55;4.05;;;;;;;;;;5054571;28;20322;-48
2021/01/03 01:28:04;;;;;;;5.10;4.35;;;;;;;;;;5056635;28;20258;-48
2021/01/03 01:30:31;;;;;;;4.80;4.35;;;;;;;;;;5064923;28;20576;-48
2021/01/03 01:32:57;;;;;;;5.10;4.60;;;;;;;;;;5055964;28;20167;-48
2021/01/03 01:35:31;;;;;;;4.93;4.43;;;;;;;;;;5054227;28;20189;-48
2021/01/03 01:37:57;;;;;;;4.90;4.50;;;;;;;;;;5057327;28;20185;-48
2021/01/03 01:40:25;;;;;;;4.60;4.20;;;;;;;;;;5060352;28;20176;-48
2021/01/03 01:42:52;;;;;;;4.78;4.28;;;;;;;;;;5036259;28;20172;-48
2021/01/03 01:45:21;;;;;;;4.55;4.05;;;;;;;;;;5044741;28;20566;-48
2021/01/03 01:47:47;;;;;;;5.00;4.53;;;;;;;;;;5055940;28;20197;-48
2021/01/03 01:50:17;;;;;;;5.55;4.45;;;;;;;;;;5066473;28;20266;-48
2021/01/03 01:52:44;;;;;;;5.07;4.40;;;;;;;;;;5053926;28;20167;-48
2021/01/03 01:55:16;;;;;;;4.95;4.38;;;;;;;;;;5048702;28;20211;-48
2021/01/03 01:57:51;;;;;;;4.30;3.90;;;;;;;;;;5056115;28;20163;-48
2021/01/03 02:00:19;;;;;;;4.97;4.25;;;;;;;;;;5063894;28;20190;-48
2021/01/03 02:03:03;;;;;;;5.20;4.70;;;;;;;;;;5035990;28;20207;-48
2021/01/03 02:05:33;;;;;;;4.88;4.43;;;;;;;;;;5035135;28;20610;-48
2021/01/03 02:08:02;;;;;;;4.63;4.20;;;;;;;;;;5046154;28;20175;-47
2021/01/03 02:10:30;;;;;;;4.97;4.47;;;;;;;;;;5067555;28;20186;-47
2021/01/03 02:13:06;;;;;;;4.75;4.35;;;;;;;;;;5075567;28;20211;-47
2021/01/03 02:15:32;;;;;;;5.00;4.13;;;;;;;;;;5047101;28;20178;-48
2021/01/03 02:18:00;;;;;;;5.13;4.60;;;;;;;;;;5054785;28;20644;-47
2021/01/03 02:20:27;;;;;;;5.13;4.63;;;;;;;;;;5064364;28;20187;-47
2021/01/03 02:22:58;;;;;;;5.80;4.65;;;;;;;;;;5035684;28;20192;-47
2021/01/03 02:25:24;;;;;;;4.85;4.13;;;;;;;;;;5034704;28;20180;-47
2021/01/03 02:28:09;;;;;;;4.50;4.10;;;;;;;;;;5049914;28;20187;-47
2021/01/03 02:30:35;;;;;;;5.57;5.00;;;;;;;;;;5065279;28;20171;-48
2021/01/03 02:33:16;;;;;;;5.03;4.45;;;;;;;;;;5055217;28;20182;-47
2021/01/03 02:35:44;;;;;;;5.20;4.70;;;;;;;;;;5042611;28;20175;-47
2021/01/03 02:38:10;;;;;;;5.55;4.97;;;;;;;;;;5034975;28;20164;-47
2021/01/03 02:40:36;;;;;;;4.80;4.30;;;;;;;;;;5059514;28;20207;-47
2021/01/03 02:43:02;;;;;;;4.72;4.32;;;;;;;;;;5074708;28;20244;-47
2021/01/03 02:45:30;;;;;;;4.70;4.30;;;;;;;;;;5065101;28;20176;-48
2021/01/03 02:48:14;;;;;;;4.57;3.95;;;;;;;;;;5045318;28;20183;-47
2021/01/03 02:50:41;;;;;;;4.63;4.22;;;;;;;;;;5062932;28;20190;-47
2021/01/03 02:53:08;;;;;;;4.78;4.25;;;;;;;;;;5034962;28;20203;-47
2021/01/03 02:55:34;;;;;;;4.88;4.43;;;;;;;;;;5043935;28;20179;-47
2021/01/03 02:58:00;;;;;;;4.68;4.25;;;;;;;;;;5034862;28;20171;-47
2021/01/03 03:00:28;;;;;;;4.45;4.05;;;;;;;;;;5065864;28;20565;-47
2021/01/03 03:02:53;;;;;;;4.38;3.97;;;;;;;;;;5036595;28;20279;-47
2021/01/03 03:05:20;;;;;;;4.18;3.85;;;;;;;;;;5038217;28;20258;-47
2021/01/03 03:07:46;;;;;;;4.82;4.32;;;;;;;;;;5054907;28;20167;-47
2021/01/03 03:10:12;;;;;;;5.05;4.55;;;;;;;;;;5065580;28;20484;-47
2021/01/03 03:12:38;;;;;;;4.35;3.92;;;;;;;;;;5054686;28;20191;-47
2021/01/03 03:15:08;;;;;;;4.45;4.05;;;;;;;;;;5035687;28;20243;-48
2021/01/03 03:17:35;;;;;;;4.72;4.32;;;;;;;;;;5050119;28;20209;-47
2021/01/03 03:20:01;;;;;;;4.55;3.97;;;;;;;;;;5066233;28;20206;-48
2021/01/03 03:22:27;;;;;;;4.22;3.83;;;;;;;;;;5034938;28;20460;-47
2021/01/03 03:24:53;;;;;;;4.22;3.83;;;;;;;;;;5058769;28;20186;-48
2021/01/03 03:27:19;;;;;;;4.25;3.85;;;;;;;;;;5050968;28;20440;-47
2021/01/03 03:29:45;;;;;;;4.57;4.18;;;;;;;;;;5055766;28;20244;-47
2021/01/03 03:32:11;;;;;;;4.15;3.75;;;;;;;;;;5035329;28;20482;-48
2021/01/03 03:34:37;;;;;;;4.50;4.05;;;;;;;;;;5052433;28;20231;-47
2021/01/03 03:37:03;;;;;;;4.43;4.03;;;;;;;;;;5054245;28;20183;-47
2021/01/03 03:39:29;;;;;;;4.22;3.83;;;;;;;;;;5064947;28;20180;-48
2021/01/03 03:41:58;;;;;;;4.25;3.78;;;;;;;;;;5045127;28;20515;-48
2021/01/03 03:44:25;;;;;;;3.97;3.58;;;;;;;;;;5034199;28;20168;-48
2021/01/03 03:46:51;;;;;;;4.13;3.83;;;;;;;;;;5035870;28;20179;-48
2021/01/03 03:49:18;;;;;;;4.63;4.15;;;;;;;;;;5063956;28;20186;-48
2021/01/03 03:51:44;;;;;;;4.22;3.83;;;;;;;;;;5066833;28;20227;-48
2021/01/03 03:54:09;;;;;;;4.32;3.92;;;;;;;;;;5073596;28;20234;-47
2021/01/03 03:56:35;;;;;;;5.03;3.83;;;;;;;;;;5060291;28;20563;-48
2021/01/03 03:59:01;;;;;;;3.80;3.50;;;;;;;;;;5066031;28;20559;-48
2021/01/03 04:01:36;;;;;;;4.32;3.92;;;;;;;;;;5064712;28;20211;-48
2021/01/03 04:04:02;;;;;;;4.20;3.80;;;;;;;;;;5058118;28;20364;-48
2021/01/03 04:06:28;;;;;;;4.28;3.88;;;;;;;;;;5078147;28;20257;-47
2021/01/03 04:08:54;;;;;;;3.55;3.25;;;;;;;;;;5070325;28;20195;-48
2021/01/03 04:11:19;;;;;;;3.65;3.35;;;;;;;;;;5057615;28;20190;-48
2021/01/03 04:13:45;;;;;;;3.53;3.22;;;;;;;;;;5070663;28;20210;-47
2021/01/03 04:16:11;;;;;;;4.43;3.72;;;;;;;;;;5065965;28;20226;-47
2021/01/03 04:18:37;;;;;;;4.15;3.65;;;;;;;;;;5067703;28;20170;-47
2021/01/03 04:21:04;;;;;;;4.03;3.67;;;;;;;;;;5072500;28;20170;-48
2021/01/03 04:23:30;;;;;;;4.18;3.70;;;;;;;;;;5069796;28;20187;-48
2021/01/03 04:25:56;;;;;;;4.00;3.60;;;;;;;;;;5056559;28;20237;-48
2021/01/03 04:28:22;;;;;;;4.30;3.90;;;;;;;;;;5057747;28;20183;-48
2021/01/03 04:30:48;;;;;;;4.10;3.70;;;;;;;;;;5059644;28;20194;-48
2021/01/03 04:33:13;;;;;;;4.03;3.63;;;;;;;;;;5047769;28;20193;-48
2021/01/03 04:35:39;;;;;;;3.80;3.50;;;;;;;;;;5055415;28;20179;-47
2021/01/03 04:38:05;;;;;;;4.20;3.80;;;;;;;;;;5044822;28;20543;-48
2021/01/03 04:40:32;;;;;;;4.13;3.72;;;;;;;;;;5037657;28;20510;-48
2021/01/03 04:43:02;;;;;;;3.65;3.35;;;;;;;;;;5049446;28;20185;-47
2021/01/03 04:45:32;;;;;;;3.88;3.55;;;;;;;;;;5061961;28;20172;-47
2021/01/03 04:48:00;;;;;;;4.60;3.90;;;;;;;;;;5047736;28;20214;-48
2021/01/03 04:50:47;;;;;;;3.78;3.40;;;;;;;;;;5052836;28;20607;-48
2021/01/03 04:53:31;;;;;;;4.20;3.80;;;;;;;;;;5037271;28;20203;-48
2021/01/03 04:56:02;;;;;;;3.80;3.40;;;;;;;;;;5051201;28;20214;-47
2021/01/03 04:58:28;;;;;;;3.92;3.53;;;;;;;;;;5048913;28;20192;-46
2021/01/03 05:01:22;;;;;;;3.85;3.50;;;;;;;;;;5066153;28;20295;-48
2021/01/03 05:04:09;;;;;;;3.67;3.30;;;;;;;;;;5057682;28;20191;-48
2021/01/03 05:06:35;;;;;;;4.15;3.75;;;;;;;;;;5057255;28;20182;-48
2021/01/03 05:09:03;;;;;;;3.63;3.33;;;;;;;;;;5037085;28;20258;-47
2021/01/03 05:11:52;;;;;;;4.22;3.78;;;;;;;;;;5041532;28;20294;-48
2021/01/03 05:14:24;;;;;;;4.05;3.65;;;;;;;;;;5068125;28;20214;-48
2021/01/03 05:16:57;;;;;;;4.00;3.60;;;;;;;;;;5046193;28;20175;-48
2021/01/03 05:19:23;;;;;;;3.88;3.53;;;;;;;;;;5055602;28;20171;-48
2021/01/03 05:21:51;;;;;;;4.07;3.60;;;;;;;;;;5048690;28;20233;-48
2021/01/03 05:24:17;;;;;;;3.88;3.47;;;;;;;;;;5055978;28;20175;-48
2021/01/03 05:26:43;;;;;;;3.97;3.65;;;;;;;;;;5072847;28;20625;-48
2021/01/03 05:29:10;;;;;;;4.05;3.63;;;;;;;;;;5076480;28;20182;-48
2021/01/03 05:31:36;;;;;;;3.80;3.50;;;;;;;;;;5046862;28;20227;-48
2021/01/03 05:34:10;;;;;;;4.15;3.70;;;;;;;;;;5050127;28;20290;-47
2021/01/03 05:36:41;;;;;;;4.28;3.88;;;;;;;;;;5054685;28;20586;-48
2021/01/03 05:39:12;;;;;;;4.03;3.63;;;;;;;;;;5051011;28;20263;-48
2021/01/03 05:41:45;;;;;;;3.85;3.47;;;;;;;;;;5072187;28;20179;-48
2021/01/03 05:44:13;;;;;;;5.07;3.97;;;;;;;;;;5075658;28;20171;-47
2021/01/03 05:46:42;;;;;;;4.10;3.72;;;;;;;;;;5050359;28;20187;-47
2021/01/03 05:49:12;;;;;;;3.97;3.63;;;;;;;;;;5055800;28;20181;-48
2021/01/03 05:51:38;;;;;;;3.95;3.55;;;;;;;;;;5043335;28;20222;-47
2021/01/03 05:54:13;;;;;;;4.53;4.13;;;;;;;;;;5055297;28;20238;-48
2021/01/03 05:56:39;;;;;;;4.07;3.63;;;;;;;;;;5041029;28;20519;-48
2021/01/03 05:59:05;;;;;;;4.00;3.65;;;;;;;;;;5050501;28;20179;-48
2021/01/03 06:01:32;;;;;;;4.03;3.45;;;;;;;;;;5043978;28;20224;-47
2021/01/03 06:04:00;;;;;;;4.25;3.85;;;;;;;;;;5045347;28;20201;-48
2021/01/03 06:06:32;;;;;;;4.68;3.95;;;;;;;;;;5072967;28;20515;-47
2021/01/03 06:08:59;;;;;;;3.65;3.35;;;;;;;;;;5075307;28;20569;-48
2021/01/03 06:11:25;;;;;;;4.13;3.75;;;;;;;;;;5062509;28;20210;-48
2021/01/03 06:13:52;;;;;;;3.95;3.55;;;;;;;;;;5055783;28;20506;-48
2021/01/03 06:16:24;;;;;;;4.22;3.83;;;;;;;;;;5054346;28;20253;-48
2021/01/03 06:18:52;;;;;;;4.03;3.70;;;;;;;;;;5055571;28;20167;-47
2021/01/03 06:21:30;;;;;;;4.60;3.95;;;;;;;;;;5062666;28;20179;-47
2021/01/03 06:24:09;;;;;;;3.88;3.58;;;;;;;;;;5055246;28;20170;-48
2021/01/03 06:26:37;;;;;;;4.78;4.03;;;;;;;;;;5055182;28;20187;-48
2021/01/03 06:29:09;;;;;;;4.72;4.03;;;;;;;;;;5062009;28;20210;-48
2021/01/03 06:31:55;;;;;;;5.18;3.67;;;;;;;;;;5054190;28;20605;-48
2021/01/03 06:34:24;;;;;;;4.07;3.67;;;;;;;;;;5072791;28;20617;-47
2021/01/03 06:36:53;;;;;;;4.47;4.07;;;;;;;;;;5075089;28;20190;-48
2021/01/03 06:39:19;;;;;;;4.03;3.63;;;;;;;;;;5070860;28;20457;-47
2021/01/03 06:41:54;;;;;;;5.68;4.10;;;;;;;;;;5054412;28;20593;-47
2021/01/03 06:44:38;;;;;;;5.75;4.20;;;;;;;;;;5035248;28;20191;-47
2021/01/03 06:47:10;;;;;;;4.78;3.90;;;;;;;;;;5056170;28;20570;-48
2021/01/03 06:49:46;;;;;;;4.40;3.92;;;;;;;;;;5049145;28;20447;-48
2021/01/03 06:52:26;;;;;;;4.60;4.20;;;;;;;;;;5061347;28;20205;-48
2021/01/03 06:54:58;;;;;;;5.70;4.28;;;;;;;;;;5074369;28;20564;-48
2021/01/03 06:57:43;;;;;;;4.68;4.18;;;;;;;;;;5047266;28;20606;-48
2021/01/03 07:00:20;;;;;;;5.88;4.18;;;;;;;;;;5059678;28;20182;-48
2021/01/03 07:02:49;;;;;;;5.05;4.22;;;;;;;;;;5038515;28;20199;-48
2021/01/03 07:05:15;;;;;;;7.95;4.38;;;;;;;;;;5051560;28;20167;-48
2021/01/03 07:07:43;;;;;;;4.88;3.88;;;;;;;;;;5035144;28;20551;-48
2021/01/03 07:10:19;;;;;;;4.95;4.32;;;;;;;;;;5037562;28;20172;-48
2021/01/03 07:12:49;;;;;;;4.82;4.20;;;;;;;;;;5049171;28;20217;-47
2021/01/03 07:15:27;;;;;;;6.30;4.40;;;;;;;;;;5061030;28;20236;-48
2021/01/03 07:17:56;;;;;;;5.55;4.25;;;;;;;;;;5054645;28;20179;-47
2021/01/03 07:20:26;;;;;;;4.18;3.72;;;;;;;;;;5050577;28;20172;-48
2021/01/03 07:22:52;;;;;;;4.90;4.20;;;;;;;;;;5051126;28;20183;-48
2021/01/03 07:25:22;;;;;;;4.80;4.30;;;;;;;;;;5052611;28;20179;-47
2021/01/03 07:28:07;;;;;;;5.35;4.28;;;;;;;;;;5061058;28;20435;-47
2021/01/03 07:30:39;;;;;;;4.90;4.10;;;;;;;;;;5051719;28;20574;-48
2021/01/03 07:33:12;;;;;;;5.32;4.38;;;;;;;;;;5039080;28;20203;-47
2021/01/03 07:35:40;;;;;;;5.00;3.95;;;;;;;;;;5043602;28;20218;-48
2021/01/03 07:38:24;;;;;;;5.05;3.85;;;;;;;;;;5061564;28;20186;-48
2021/01/03 07:41:07;;;;;;;4.65;4.00;;;;;;;;;;5053127;28;20167;-48
2021/01/03 07:43:56;;;;;;;11.23;5.78;;;;;;;;;;5059670;28;20440;-48
2021/01/03 07:46:40;;;;;;;16.42;7.55;;;;;;;;;;5048417;28;20582;-46
2021/01/03 07:49:27;;;;;;;18.38;10.35;;;;;;;;;;5057664;28;20187;-45
2021/01/03 07:51:53;;;;;;;24.33;12.25;;;;;;;;;;5040617;28;20822;-46
2021/01/03 07:54:19;;;;;;;26.65;13.68;;;;;;;;;;5057255;28;20285;-46
2021/01/03 07:56:45;;;;;;;24.83;14.57;;;;;;;;;;5062276;28;20342;-44
2021/01/03 07:59:11;;;;;;;32.03;15.20;;;;;;;;;;5059217;28;20190;-46
2021/01/03 08:01:39;;;;;;;26.55;15.70;;;;;;;;;;5044364;28;20278;-48
2021/01/03 08:04:26;;;;;;;32.90;17.75;;;;;;;;;;5040986;28;20180;-49
2021/01/03 08:07:02;;;;;;;31.33;17.35;;;;;;;;;;5057682;28;20183;-48
2021/01/03 08:09:30;;;;;;;32.55;18.15;;;;;;;;;;5077593;28;20175;-45
2021/01/03 08:12:23;;;;;;;29.50;17.05;;;;;;;;;;5069984;28;20217;-44
2021/01/03 08:14:50;;;;;;;30.02;18.13;;;;;;;;;;5046177;28;20223;-48
2021/01/03 08:17:24;;;;;;;27.17;15.20;;;;;;;;;;5058571;28;20191;-46
2021/01/03 08:19:51;;;;;;;27.92;14.43;;;;;;;;;;5053601;28;20192;-46
2021/01/03 08:22:27;;;;;;;26.75;13.23;;;;;;;;;;5067664;28;20198;-46
2021/01/03 08:24:58;;;;;;;30.55;14.45;;;;;;;;;;5065615;28;20268;-46
2021/01/03 08:27:30;;;;;;;29.65;13.80;;;;;;;;;;5062625;28;20266;-46
2021/01/03 08:30:07;;;;;;;29.15;13.85;;;;;;;;;;5067357;28;20269;-46
2021/01/03 08:32:35;;;;;;;29.33;14.75;;;;;;;;;;5061368;28;20183;-46
2021/01/03 08:35:04;;;;;;;32.45;15.15;;;;;;;;;;5058269;28;20593;-46
2021/01/03 08:37:36;;;;;;;28.15;14.48;;;;;;;;;;5054592;28;20183;-46
2021/01/03 08:40:22;;;;;;;31.42;15.20;;;;;;;;;;5061556;28;20227;-46
2021/01/03 08:42:58;;;;;;;38.17;16.90;;;;;;;;;;5053486;28;20179;-47
2021/01/03 08:45:28;;;;;;;29.75;15.85;;;;;;;;;;5062756;28;20179;-46
2021/01/03 08:47:54;;;;;;;34.55;16.80;;;;;;;;;;5047227;28;20218;-46
2021/01/03 08:50:25;;;;;;;35.90;15.35;;;;;;;;;;5061208;28;20630;-46
2021/01/03 08:52:55;;;;;;;38.63;16.75;;;;;;;;;;5058165;28;20183;-46
2021/01/03 08:55:21;;;;;;;31.05;15.60;;;;;;;;;;5059390;28;20586;-46
2021/01/03 08:57:54;;;;;;;40.67;16.27;;;;;;;;;;5068615;28;20482;-45
2021/01/03 09:00:21;;;;;;;32.08;15.70;;;;;;;;;;5072443;28;20179;-46
2021/01/03 09:02:48;;;;;;;37.58;16.08;;;;;;;;;;5062316;28;20460;-46
2021/01/03 09:05:18;;;;;;;33.83;15.90;;;;;;;;;;5061802;28;20191;-46
2021/01/03 09:07:45;;;;;;;34.10;16.20;;;;;;;;;;5061706;28;20182;-46
2021/01/03 09:10:41;;;;;;;37.42;15.43;;;;;;;;;;5038451;28;20188;-46
2021/01/03 09:13:20;;;;;;;35.85;16.10;;;;;;;;;;5050054;28;20207;-46
2021/01/03 09:15:53;;;;;;;29.42;15.50;;;;;;;;;;5055729;28;20196;-48
2021/01/03 09:18:26;;;;;;;32.17;15.35;;;;;;;;;;5052306;28;20171;-46
2021/01/03 09:20:56;;;;;;;32.70;15.20;;;;;;;;;;5061421;28;20257;-46
2021/01/03 09:23:25;;;;;;;32.05;15.18;;;;;;;;;;5067239;28;20175;-46
2021/01/03 09:25:56;;;;;;;33.08;15.15;;;;;;;;;;5065492;28;20175;-45
2021/01/03 09:28:29;;;;;;;26.25;14.32;;;;;;;;;;5065940;28;20201;-46
2021/01/03 09:31:14;;;;;;;27.27;13.93;;;;;;;;;;5058773;28;20198;-46
2021/01/03 09:33:40;;;;;;;27.40;14.32;;;;;;;;;;5040903;28;20218;-46
2021/01/03 09:36:06;;;;;;;25.90;13.32;;;;;;;;;;5061409;28;20207;-46
2021/01/03 09:38:35;;;;;;;27.52;13.85;;;;;;;;;;5075793;28;20167;-46
2021/01/03 09:41:15;;;;;;;24.38;13.35;;;;;;;;;;5073157;28;20198;-46
2021/01/03 09:43:54;;;;;;;28.38;14.07;;;;;;;;;;5058635;28;20187;-46
2021/01/03 09:46:24;;;;;;;24.75;13.48;;;;;;;;;;5058319;28;20179;-46
2021/01/03 09:48:50;;;;;;;25.83;13.52;;;;;;;;;;5066194;28;20870;-46
2021/01/03 09:51:33;;;;;;;27.48;13.68;;;;;;;;;;5046800;28;20191;-46
2021/01/03 09:54:05;;;;;;;22.40;12.52;;;;;;;;;;5061993;28;20277;-46
2021/01/03 09:56:33;;;;;;;25.88;13.25;;;;;;;;;;5058705;28;20171;-46
2021/01/03 09:59:07;;;;;;;23.58;13.30;;;;;;;;;;5070152;28;20506;-46
2021/01/03 10:01:36;;;;;;;25.95;13.05;;;;;;;;;;5069033;28;20223;-46
2021/01/03 10:04:17;;;;;;;24.70;12.05;;;;;;;;;;5072864;28;20504;-47
2021/01/03 10:06:44;;;;;;;21.67;12.40;;;;;;;;;;5055010;28;20233;-46
2021/01/03 10:09:12;;;;;;;24.52;13.00;;;;;;;;;;5068972;28;20186;-46
2021/01/03 10:11:38;;;;;;;21.77;13.30;;;;;;;;;;5060969;28;20175;-46
2021/01/03 10:14:09;;;;;;;24.65;15.20;;;;;;;;;;5072427;28;20206;-46
2021/01/03 10:16:36;;;;;;;21.35;14.20;;;;;;;;;;5060951;28;20568;-46
2021/01/03 10:19:12;;;;;;;25.05;14.85;;;;;;;;;;5067669;28;20178;-46
2021/01/03 10:21:39;;;;;;;23.30;14.55;;;;;;;;;;5051910;28;20190;-46
2021/01/03 10:24:14;;;;;;;23.85;14.93;;;;;;;;;;5075098;28;20170;-46
2021/01/03 10:26:40;;;;;;;24.33;15.05;;;;;;;;;;5067818;28;20514;-46
2021/01/03 10:29:06;;;;;;;24.80;15.02;;;;;;;;;;5054610;28;20204;-46
2021/01/03 10:31:40;;;;;;;24.00;14.65;;;;;;;;;;5061508;28;20196;-46
2021/01/03 10:34:06;;;;;;;23.02;15.27;;;;;;;;;;5048845;28;20199;-46
2021/01/03 10:36:32;;;;;;;21.58;14.57;;;;;;;;;;5058096;28;20193;-46
2021/01/03 10:38:58;;;;;;;23.83;14.35;;;;;;;;;;5075120;28;20198;-46
2021/01/03 10:41:31;;;;;;;23.92;15.15;;;;;;;;;;5071255;28;20775;-46
2021/01/03 10:43:57;;;;;;;22.30;14.57;;;;;;;;;;5067296;28;20197;-46
2021/01/03 10:46:23;;;;;;;20.08;13.77;;;;;;;;;;5042401;28;20183;-46
2021/01/03 10:48:49;;;;;;;21.77;14.57;;;;;;;;;;5057467;28;20617;-46
2021/01/03 10:51:15;;;;;;;20.02;13.85;;;;;;;;;;5071330;28;20274;-46
2021/01/03 10:53:41;;;;;;;20.02;14.30;;;;;;;;;;5065031;28;20658;-46
2021/01/03 10:56:09;;;;;;;21.30;13.73;;;;;;;;;;5053219;28;20186;-46
2021/01/03 10:58:35;;;;;;;20.85;13.88;;;;;;;;;;5054986;28;20186;-46
2021/01/03 11:01:01;;;;;;;20.20;13.32;;;;;;;;;;5053825;28;20312;-45
2021/01/03 11:03:27;;;;;;;18.92;12.63;;;;;;;;;;5060036;28;20253;-46
2021/01/03 11:05:53;;;;;;;20.27;13.02;;;;;;;;;;5066199;28;20183;-46
2021/01/03 11:08:20;;;;;;;17.80;12.30;;;;;;;;;;5069214;28;20212;-46
2021/01/03 11:10:46;;;;;;;17.88;11.98;;;;;;;;;;5060494;28;20317;-46
2021/01/03 11:13:12;;;;;;;18.60;12.10;;;;;;;;;;5054729;28;20568;-46
2021/01/03 11:15:38;;;;;;;18.45;12.10;;;;;;;;;;5058952;28;20260;-46
2021/01/03 11:18:04;;;;;;;19.38;12.68;;;;;;;;;;5062230;28;20218;-46
2021/01/03 11:20:30;;;;;;;20.42;13.25;;;;;;;;;;5056625;28;20178;-46
2021/01/03 11:22:56;;;;;;;18.70;13.23;;;;;;;;;;5073742;28;20262;-46
2021/01/03 11:25:22;;;;;;;17.77;13.48;;;;;;;;;;5053402;28;20557;-46
2021/01/03 11:27:48;;;;;;;19.15;13.23;;;;;;;;;;5056762;28;20191;-46
2021/01/03 11:30:14;;;;;;;21.10;14.10;;;;;;;;;;5065245;28;20261;-46
2021/01/03 11:32:43;;;;;;;23.38;14.18;;;;;;;;;;5066126;28;20190;-46
2021/01/03 11:35:09;;;;;;;26.58;14.98;;;;;;;;;;5045078;28;20215;-46
2021/01/03 11:37:35;;;;;;;27.55;14.98;;;;;;;;;;5059061;28;20180;-46
2021/01/03 11:40:01;;;;;;;31.88;15.63;;;;;;;;;;5053590;28;20524;-46
2021/01/03 11:42:30;;;;;;;35.65;17.52;;;;;;;;;;5042274;28;20171;-46
2021/01/03 11:44:56;;;;;;;36.28;17.17;;;;;;;;;;5059178;28;20223;-46
2021/01/03 11:47:22;;;;;;;45.92;18.83;;;;;;;;;;5061015;28;20175;-46
2021/01/03 11:49:48;;;;;;;45.17;19.10;;;;;;;;;;5059613;28;20179;-46
2021/01/03 11:52:14;;;;;;;43.17;19.05;;;;;;;;;;5042849;28;20176;-46
2021/01/03 11:54:40;;;;;;;40.67;18.35;;;;;;;;;;5046821;28;20238;-46
2021/01/03 11:57:07;;;;;;;45.30;19.75;;;;;;;;;;5062845;28;20498;-46
2021/01/03 11:59:33;;;;;;;56.08;24.80;;;;;;;;;;5056615;28;20190;-46
2021/01/03 12:02:00;;;;;;;69.57;28.75;;;;;;;;;;5046623;28;20180;-46
2021/01/03 12:04:27;;;;;;;67.90;29.98;;;;;;;;;;5051295;28;20179;-46
2021/01/03 12:06:57;;;;;;;62.53;27.33;;;;;;;;;;5059067;28;20240;-46
2021/01/03 12:09:23;;;;;;;62.70;28.60;;;;;;;;;;5064859;28;20187;-46
2021/01/03 12:11:53;;;;;;;62.05;28.48;;;;;;;;;;5062867;28;20183;-46
2021/01/03 12:14:19;;;;;;;69.38;28.20;;;;;;;;;;5073500;28;20205;-46
2021/01/03 12:16:45;;;;;;;56.70;26.95;;;;;;;;;;5053909;28;20175;-46
2021/01/03 12:19:11;;;;;;;57.78;26.60;;;;;;;;;;5060295;28;20254;-46
2021/01/03 12:21:37;;;;;;;66.82;27.98;;;;;;;;;;5044387;28;20259;-46
2021/01/03 12:24:03;;;;;;;55.20;26.65;;;;;;;;;;5058898;28;20217;-46
2021/01/03 12:26:40;;;;;;;53.03;25.35;;;;;;;;;;5059426;28;20216;-46
2021/01/03 12:29:06;;;;;;;52.20;25.30;;;;;;;;;;5054533;28;20183;-46
2021/01/03 12:31:52;;;;;;;55.65;26.50;;;;;;;;;;5074869;28;20182;-46
2021/01/03 12:34:20;;;;;;;56.22;25.80;;;;;;;;;;5059764;28;20572;-45
2021/01/03 12:36:46;;;;;;;47.85;23.92;;;;;;;;;;5050900;28;20179;-46
2021/01/03 12:39:14;;;;;;;47.85;23.38;;;;;;;;;;5057482;28;20179;-46
2021/01/03 12:41:40;;;;;;;46.72;22.58;;;;;;;;;;5055352;28;20438;-46
2021/01/03 12:44:07;;;;;;;46.28;21.30;;;;;;;;;;5065385;28;20190;-46
2021/01/03 12:46:34;;;;;;;45.90;22.13;;;;;;;;;;5058619;28;20171;-46
2021/01/03 12:49:00;;;;;;;43.47;21.75;;;;;;;;;;5056766;28;20514;-46
2021/01/03 12:51:26;;;;;;;41.97;20.20;;;;;;;;;;5056848;28;20179;-46
2021/01/03 12:53:53;;;;;;;38.10;19.65;;;;;;;;;;5075373;28;20544;-46
2021/01/03 12:56:22;;;;;;;37.90;20.08;;;;;;;;;;5062658;28;20167;-46
2021/01/03 12:58:49;;;;;;;38.72;21.33;;;;;;;;;;5063709;28;20258;-46
2021/01/03 13:01:15;;;;;;;35.72;19.73;;;;;;;;;;5076760;28;20198;-46
2021/01/03 13:03:41;;;;;;;38.78;19.27;;;;;;;;;;5069119;28;20232;-45
2021/01/03 13:06:07;;;;;;;42.45;18.25;;;;;;;;;;5062914;28;20190;-45
2021/01/03 13:08:33;;;;;;;36.25;18.50;;;;;;;;;;5072361;28;20183;-45
2021/01/03 13:10:59;;;;;;;33.00;17.50;;;;;;;;;;5065953;28;20194;-45
2021/01/03 13:13:25;;;;;;;34.05;17.98;;;;;;;;;;5065792;28;20214;-46
2021/01/03 13:15:51;;;;;;;32.08;18.33;;;;;;;;;;5050287;28;20175;-45
2021/01/03 13:18:17;;;;;;;37.00;17.52;;;;;;;;;;5059076;28;20720;-46
2021/01/03 13:20:43;;;;;;;59.40;21.88;;;;;;;;;;5058037;28;20249;-45
2021/01/03 13:23:09;;;;;;;77.00;24.80;;;;;;;;;;5061913;28;20254;-46
2021/01/03 13:25:35;;;;;;;82.90;25.73;;;;;;;;;;5061591;28;20262;-45
2021/01/03 13:28:01;;;;;;;70.97;24.20;;;;;;;;;;5074623;28;20186;-46
2021/01/03 13:30:27;;;;;;;68.28;24.27;;;;;;;;;;5053787;28;20212;-46
2021/01/03 13:32:52;;;;;;;57.90;22.45;;;;;;;;;;5074960;28;20514;-46
2021/01/03 13:35:18;;;;;;;51.65;21.35;;;;;;;;;;5066682;28;20230;-46
2021/01/03 13:37:44;;;;;;;52.40;20.95;;;;;;;;;;5054522;28;20170;-45
2021/01/03 13:40:11;;;;;;;56.58;20.17;;;;;;;;;;5061258;28;20192;-45
2021/01/03 13:42:37;;;;;;;49.13;20.42;;;;;;;;;;5057643;28;20213;-46
2021/01/03 13:45:04;;;;;;;46.05;20.00;;;;;;;;;;5063624;28;20460;-46
2021/01/03 13:47:30;;;;;;;40.83;19.45;;;;;;;;;;5060114;28;20690;-45
2021/01/03 13:49:56;;;;;;;44.88;19.13;;;;;;;;;;5055986;28;20203;-46
2021/01/03 13:52:22;;;;;;;46.97;19.45;;;;;;;;;;5058074;28;20190;-46
2021/01/03 13:54:48;;;;;;;41.70;17.80;;;;;;;;;;5055464;28;20217;-45
2021/01/03 13:57:14;;;;;;;37.38;17.95;;;;;;;;;;5065101;28;20196;-46
2021/01/03 13:59:41;;;;;;;37.92;17.60;;;;;;;;;;5064058;28;20555;-45
2021/01/03 14:02:07;;;;;;;37.97;18.23;;;;;;;;;;5058822;28;20174;-46
2021/01/03 14:04:33;;;;;;;39.58;18.02;;;;;;;;;;5074797;28;20183;-46
2021/01/03 14:07:00;;;;;;;37.60;16.83;;;;;;;;;;5068109;28;20190;-46
2021/01/03 14:09:26;;;;;;;30.98;15.57;;;;;;;;;;5071774;28;20186;-45
2021/01/03 14:11:57;;;;;;;34.35;15.40;;;;;;;;;;5067217;28;20220;-45
2021/01/03 14:14:23;;;;;;;34.05;16.30;;;;;;;;;;5063533;28;20593;-46
2021/01/03 14:16:54;;;;;;;29.48;14.90;;;;;;;;;;5064059;28;20187;-45
2021/01/03 14:19:20;;;;;;;30.52;15.80;;;;;;;;;;5055585;28;20179;-45
2021/01/03 14:21:46;;;;;;;31.05;14.13;;;;;;;;;;5042953;28;20277;-46
2021/01/03 14:24:12;;;;;;;25.17;14.00;;;;;;;;;;5059513;28;20225;-46
2021/01/03 14:26:39;;;;;;;26.70;13.90;;;;;;;;;;5059919;28;20202;-45
2021/01/03 14:29:06;;;;;;;27.20;13.77;;;;;;;;;;5055560;28;20180;-46
2021/01/03 14:31:32;;;;;;;28.48;14.30;;;;;;;;;;5061989;28;20253;-46
2021/01/03 14:33:58;;;;;;;29.52;14.48;;;;;;;;;;5067777;28;20818;-46
2021/01/03 14:36:25;;;;;;;25.10;13.05;;;;;;;;;;5049835;28;20179;-46
2021/01/03 14:38:55;;;;;;;25.00;12.88;;;;;;;;;;5060015;28;20183;-45
2021/01/03 14:41:21;;;;;;;24.25;12.30;;;;;;;;;;5062056;28;20195;-46